sensor_id;sensor_type;location;lat;lon;timestamp;P1;durP1;ratioP1;P2;durP2;ratioP2
65764;SDS011;52915;53.718;19.946;2023-01-15T00:03:08;35.60;;;14.70;;
65764;SDS011;52915;53.718;19.946;2023-01-15T00:08:12;34.30;;;14.40;;
65764;SDS011;52915;53.718;19.946;2023-01-15T00:13:15;50.30;;;19.20;;
65764;SDS011;52915;53.718;19.946;2023-01-15T00:18:19;57.20;;;20.80;;
65764;SDS011;52915;53.718;19.946;2023-01-15T00:23:23;34.30;;;10.90;;
65764;SDS011;52915;53.718;19.946;2023-01-15T00:28:47;31.60;;;13.30;;
65764;SDS011;52915;53.718;19.946;2023-01-15T00:33:51;46.50;;;15.60;;
65764;SDS011;52915;53.718;19.946;2023-01-15T00:38:54;48.00;;;17.50;;
65764;SDS011;52915;53.718;19.946;2023-01-15T00:43:58;36.80;;;11.70;;
65764;SDS011;52915;53.718;19.946;2023-01-15T00:49:04;31.10;;;11.40;;
65764;SDS011;52915;53.718;19.946;2023-01-15T00:54:08;33.40;;;14.40;;
65764;SDS011;52915;53.718;19.946;2023-01-15T00:59:12;42.20;;;14.30;;
65764;SDS011;52915;53.718;19.946;2023-01-15T01:04:16;41.20;;;13.00;;
65764;SDS011;52915;53.718;19.946;2023-01-15T01:09:20;35.80;;;11.90;;
65764;SDS011;52915;53.718;19.946;2023-01-15T01:14:24;29.30;;;10.60;;
65764;SDS011;52915;53.718;19.946;2023-01-15T01:19:27;22.80;;;10.00;;
65764;SDS011;52915;53.718;19.946;2023-01-15T01:24:31;27.80;;;12.60;;
65764;SDS011;52915;53.718;19.946;2023-01-15T01:29:35;25.00;;;10.40;;
65764;SDS011;52915;53.718;19.946;2023-01-15T01:34:39;19.00;;;8.40;;
65764;SDS011;52915;53.718;19.946;2023-01-15T01:39:43;29.30;;;11.50;;
65764;SDS011;52915;53.718;19.946;2023-01-15T01:49:58;24.90;;;9.10;;
65764;SDS011;52915;53.718;19.946;2023-01-15T01:55:07;31.10;;;9.40;;
65764;SDS011;52915;53.718;19.946;2023-01-15T02:00:12;19.30;;;7.30;;
65764;SDS011;52915;53.718;19.946;2023-01-15T02:05:26;29.80;;;11.90;;
65764;SDS011;52915;53.718;19.946;2023-01-15T02:10:34;28.00;;;8.10;;
65764;SDS011;52915;53.718;19.946;2023-01-15T02:15:43;18.10;;;7.10;;
65764;SDS011;52915;53.718;19.946;2023-01-15T02:20:59;21.10;;;9.40;;
65764;SDS011;52915;53.718;19.946;2023-01-15T02:26:35;16.50;;;8.70;;
65764;SDS011;52915;53.718;19.946;2023-01-15T02:31:51;26.60;;;8.70;;
65764;SDS011;52915;53.718;19.946;2023-01-15T02:37:01;37.20;;;7.90;;
65764;SDS011;52915;53.718;19.946;2023-01-15T02:42:10;26.00;;;8.40;;
65764;SDS011;52915;53.718;19.946;2023-01-15T02:47:19;20.10;;;7.30;;
65764;SDS011;52915;53.718;19.946;2023-01-15T02:52:32;17.70;;;7.40;;
65764;SDS011;52915;53.718;19.946;2023-01-15T02:57:42;19.30;;;7.40;;
65764;SDS011;52915;53.718;19.946;2023-01-15T03:03:06;31.60;;;10.00;;
65764;SDS011;52915;53.718;19.946;2023-01-15T03:08:15;16.40;;;6.60;;
65764;SDS011;52915;53.718;19.946;2023-01-15T03:13:26;27.40;;;10.50;;
65764;SDS011;52915;53.718;19.946;2023-01-15T03:18:46;17.10;;;8.00;;
65764;SDS011;52915;53.718;19.946;2023-01-15T03:24:13;22.60;;;6.50;;
65764;SDS011;52915;53.718;19.946;2023-01-15T03:29:23;26.50;;;10.00;;
65764;SDS011;52915;53.718;19.946;2023-01-15T03:34:44;21.00;;;7.70;;
65764;SDS011;52915;53.718;19.946;2023-01-15T03:39:51;17.00;;;6.60;;
65764;SDS011;52915;53.718;19.946;2023-01-15T03:45:03;25.90;;;9.30;;
65764;SDS011;52915;53.718;19.946;2023-01-15T03:55:53;21.70;;;7.50;;
65764;SDS011;52915;53.718;19.946;2023-01-15T04:01:02;21.90;;;8.50;;
65764;SDS011;52915;53.718;19.946;2023-01-15T04:06:09;20.30;;;7.50;;
65764;SDS011;52915;53.718;19.946;2023-01-15T04:11:21;27.40;;;12.00;;
65764;SDS011;52915;53.718;19.946;2023-01-15T04:16:29;25.30;;;10.20;;
65764;SDS011;52915;53.718;19.946;2023-01-15T04:21:34;37.80;;;10.60;;
65764;SDS011;52915;53.718;19.946;2023-01-15T04:26:37;25.80;;;10.90;;
65764;SDS011;52915;53.718;19.946;2023-01-15T04:31:41;30.00;;;10.80;;
65764;SDS011;52915;53.718;19.946;2023-01-15T04:36:45;30.60;;;12.10;;
65764;SDS011;52915;53.718;19.946;2023-01-15T04:41:50;20.70;;;9.20;;
65764;SDS011;52915;53.718;19.946;2023-01-15T04:47:12;18.90;;;7.40;;
65764;SDS011;52915;53.718;19.946;2023-01-15T04:52:16;27.50;;;9.10;;
65764;SDS011;52915;53.718;19.946;2023-01-15T04:57:20;30.40;;;8.40;;
65764;SDS011;52915;53.718;19.946;2023-01-15T05:02:24;17.30;;;7.90;;
65764;SDS011;52915;53.718;19.946;2023-01-15T05:07:28;21.10;;;8.00;;
65764;SDS011;52915;53.718;19.946;2023-01-15T05:12:32;20.00;;;8.00;;
65764;SDS011;52915;53.718;19.946;2023-01-15T05:17:35;21.40;;;8.60;;
65764;SDS011;52915;53.718;19.946;2023-01-15T05:22:39;27.30;;;10.60;;
65764;SDS011;52915;53.718;19.946;2023-01-15T05:27:43;13.60;;;6.50;;
65764;SDS011;52915;53.718;19.946;2023-01-15T05:32:47;16.60;;;6.00;;
65764;SDS011;52915;53.718;19.946;2023-01-15T05:37:51;33.30;;;9.00;;
65764;SDS011;52915;53.718;19.946;2023-01-15T05:42:55;29.70;;;9.10;;
65764;SDS011;52915;53.718;19.946;2023-01-15T05:47:58;16.10;;;6.50;;
65764;SDS011;52915;53.718;19.946;2023-01-15T05:53:02;27.10;;;7.30;;
65764;SDS011;52915;53.718;19.946;2023-01-15T05:58:06;32.00;;;8.60;;
65764;SDS011;52915;53.718;19.946;2023-01-15T06:03:10;18.90;;;10.50;;
65764;SDS011;52915;53.718;19.946;2023-01-15T06:08:13;34.80;;;11.80;;
65764;SDS011;52915;53.718;19.946;2023-01-15T06:13:17;28.30;;;9.80;;
65764;SDS011;52915;53.718;19.946;2023-01-15T06:18:22;24.10;;;9.80;;
65764;SDS011;52915;53.718;19.946;2023-01-15T06:23:26;21.30;;;9.80;;
65764;SDS011;52915;53.718;19.946;2023-01-15T06:28:30;15.70;;;8.30;;
65764;SDS011;52915;53.718;19.946;2023-01-15T06:33:35;24.80;;;9.60;;
65764;SDS011;52915;53.718;19.946;2023-01-15T06:38:40;20.30;;;9.70;;
65764;SDS011;52915;53.718;19.946;2023-01-15T06:43:44;24.80;;;10.70;;
65764;SDS011;52915;53.718;19.946;2023-01-15T06:49:07;28.90;;;14.20;;
65764;SDS011;52915;53.718;19.946;2023-01-15T06:54:12;83.70;;;39.70;;
65764;SDS011;52915;53.718;19.946;2023-01-15T06:59:18;30.20;;;13.90;;
65764;SDS011;52915;53.718;19.946;2023-01-15T07:04:23;40.00;;;18.70;;
65764;SDS011;52915;53.718;19.946;2023-01-15T07:09:27;49.10;;;20.00;;
65764;SDS011;52915;53.718;19.946;2023-01-15T07:14:31;32.50;;;11.00;;
65764;SDS011;52915;53.718;19.946;2023-01-15T07:19:37;63.30;;;23.70;;
65764;SDS011;52915;53.718;19.946;2023-01-15T07:24:42;19.60;;;10.50;;
65764;SDS011;52915;53.718;19.946;2023-01-15T07:29:47;21.30;;;10.00;;
65764;SDS011;52915;53.718;19.946;2023-01-15T07:34:53;68.90;;;18.50;;
65764;SDS011;52915;53.718;19.946;2023-01-15T07:39:57;73.30;;;22.60;;
65764;SDS011;52915;53.718;19.946;2023-01-15T07:45:01;104.50;;;32.80;;
65764;SDS011;52915;53.718;19.946;2023-01-15T07:50:24;49.30;;;17.30;;
65764;SDS011;52915;53.718;19.946;2023-01-15T07:55:28;51.20;;;17.40;;
65764;SDS011;52915;53.718;19.946;2023-01-15T08:00:32;50.20;;;15.60;;
65764;SDS011;52915;53.718;19.946;2023-01-15T08:05:36;52.30;;;26.00;;
65764;SDS011;52915;53.718;19.946;2023-01-15T08:10:39;33.80;;;16.50;;
65764;SDS011;52915;53.718;19.946;2023-01-15T08:16:03;27.60;;;12.50;;
65764;SDS011;52915;53.718;19.946;2023-01-15T08:21:13;26.20;;;13.60;;
65764;SDS011;52915;53.718;19.946;2023-01-15T08:26:18;35.50;;;15.30;;
65764;SDS011;52915;53.718;19.946;2023-01-15T08:31:22;64.00;;;28.60;;
65764;SDS011;52915;53.718;19.946;2023-01-15T08:36:26;83.90;;;35.00;;
65764;SDS011;52915;53.718;19.946;2023-01-15T08:41:30;270.20;;;165.90;;
65764;SDS011;52915;53.718;19.946;2023-01-15T08:46:34;98.30;;;39.90;;
65764;SDS011;52915;53.718;19.946;2023-01-15T08:51:38;133.70;;;38.40;;
65764;SDS011;52915;53.718;19.946;2023-01-15T08:56:42;104.90;;;33.70;;
65764;SDS011;52915;53.718;19.946;2023-01-15T09:01:47;81.10;;;25.60;;
65764;SDS011;52915;53.718;19.946;2023-01-15T09:06:51;101.00;;;38.80;;
65764;SDS011;52915;53.718;19.946;2023-01-15T09:11:55;74.20;;;22.70;;
65764;SDS011;52915;53.718;19.946;2023-01-15T09:16:59;71.20;;;24.80;;
65764;SDS011;52915;53.718;19.946;2023-01-15T09:22:03;74.70;;;24.10;;
65764;SDS011;52915;53.718;19.946;2023-01-15T09:27:12;121.50;;;34.60;;
65764;SDS011;52915;53.718;19.946;2023-01-15T09:32:16;114.20;;;29.10;;
65764;SDS011;52915;53.718;19.946;2023-01-15T09:37:20;117.50;;;36.90;;
65764;SDS011;52915;53.718;19.946;2023-01-15T09:42:48;129.90;;;30.60;;
65764;SDS011;52915;53.718;19.946;2023-01-15T09:48:16;97.80;;;21.70;;
65764;SDS011;52915;53.718;19.946;2023-01-15T09:54:13;68.50;;;22.80;;
65764;SDS011;52915;53.718;19.946;2023-01-15T09:59:35;201.20;;;52.40;;
65764;SDS011;52915;53.718;19.946;2023-01-15T10:04:50;169.80;;;36.70;;
65764;SDS011;52915;53.718;19.946;2023-01-15T10:10:06;138.10;;;43.50;;
65764;SDS011;52915;53.718;19.946;2023-01-15T10:15:23;112.70;;;29.10;;
65764;SDS011;52915;53.718;19.946;2023-01-15T10:20:48;151.40;;;54.30;;
65764;SDS011;52915;53.718;19.946;2023-01-15T10:26:14;146.50;;;36.50;;
65764;SDS011;52915;53.718;19.946;2023-01-15T10:36:57;232.10;;;66.50;;
65764;SDS011;52915;53.718;19.946;2023-01-15T10:42:31;131.30;;;35.20;;
65764;SDS011;52915;53.718;19.946;2023-01-15T10:47:52;111.90;;;32.30;;
65764;SDS011;52915;53.718;19.946;2023-01-15T10:58:47;227.40;;;59.70;;
65764;SDS011;52915;53.718;19.946;2023-01-15T11:04:00;265.40;;;58.00;;
65764;SDS011;52915;53.718;19.946;2023-01-15T11:09:04;207.70;;;55.60;;
65764;SDS011;52915;53.718;19.946;2023-01-15T11:14:13;144.90;;;43.10;;
65764;SDS011;52915;53.718;19.946;2023-01-15T11:19:39;214.20;;;59.90;;
65764;SDS011;52915;53.718;19.946;2023-01-15T11:30:23;115.20;;;41.50;;
65764;SDS011;52915;53.718;19.946;2023-01-15T11:35:36;106.30;;;34.00;;
65764;SDS011;52915;53.718;19.946;2023-01-15T11:40:50;144.30;;;45.30;;
65764;SDS011;52915;53.718;19.946;2023-01-15T11:46:04;64.90;;;21.00;;
65764;SDS011;52915;53.718;19.946;2023-01-15T11:51:30;68.00;;;22.90;;
65764;SDS011;52915;53.718;19.946;2023-01-15T11:56:45;37.90;;;16.60;;
65764;SDS011;52915;53.718;19.946;2023-01-15T12:02:03;41.10;;;17.80;;
65764;SDS011;52915;53.718;19.946;2023-01-15T12:07:28;27.00;;;12.60;;
65764;SDS011;52915;53.718;19.946;2023-01-15T12:13:13;55.00;;;19.90;;
65764;SDS011;52915;53.718;19.946;2023-01-15T12:24:08;71.70;;;19.70;;
65764;SDS011;52915;53.718;19.946;2023-01-15T12:35:37;53.40;;;22.40;;
65764;SDS011;52915;53.718;19.946;2023-01-15T12:40:58;19.20;;;11.10;;
65764;SDS011;52915;53.718;19.946;2023-01-15T12:46:23;36.90;;;18.30;;
65764;SDS011;52915;53.718;19.946;2023-01-15T12:51:40;54.60;;;20.30;;
65764;SDS011;52915;53.718;19.946;2023-01-15T12:57:38;60.50;;;25.70;;
65764;SDS011;52915;53.718;19.946;2023-01-15T13:02:35;48.40;;;23.40;;
65764;SDS011;52915;53.718;19.946;2023-01-15T13:08:09;96.50;;;36.80;;
65764;SDS011;52915;53.718;19.946;2023-01-15T13:13:28;177.40;;;41.30;;
65764;SDS011;52915;53.718;19.946;2023-01-15T13:29:38;569.50;;;133.20;;
65764;SDS011;52915;53.718;19.946;2023-01-15T13:35:13;252.70;;;65.80;;
65764;SDS011;52915;53.718;19.946;2023-01-15T13:40:38;221.40;;;64.70;;
65764;SDS011;52915;53.718;19.946;2023-01-15T13:45:52;154.70;;;49.20;;
65764;SDS011;52915;53.718;19.946;2023-01-15T13:51:01;157.10;;;53.50;;
65764;SDS011;52915;53.718;19.946;2023-01-15T13:56:09;457.50;;;110.10;;
65764;SDS011;52915;53.718;19.946;2023-01-15T14:34:16;89.10;;;27.40;;
65764;SDS011;52915;53.718;19.946;2023-01-15T14:39:48;66.10;;;16.50;;
65764;SDS011;52915;53.718;19.946;2023-01-15T14:45:05;108.30;;;38.10;;
65764;SDS011;52915;53.718;19.946;2023-01-15T14:55:37;100.80;;;27.90;;
65764;SDS011;52915;53.718;19.946;2023-01-15T15:01:00;116.50;;;30.50;;
65764;SDS011;52915;53.718;19.946;2023-01-15T15:06:10;167.50;;;56.60;;
65764;SDS011;52915;53.718;19.946;2023-01-15T15:17:27;58.50;;;22.20;;
65764;SDS011;52915;53.718;19.946;2023-01-15T15:27:41;84.80;;;35.10;;
65764;SDS011;52915;53.718;19.946;2023-01-15T15:32:46;74.10;;;18.70;;
65764;SDS011;52915;53.718;19.946;2023-01-15T15:37:50;163.50;;;54.30;;
65764;SDS011;52915;53.718;19.946;2023-01-15T15:43:11;88.10;;;26.00;;
65764;SDS011;52915;53.718;19.946;2023-01-15T15:48:44;84.70;;;30.90;;
65764;SDS011;52915;53.718;19.946;2023-01-15T15:54:11;37.20;;;14.80;;
65764;SDS011;52915;53.718;19.946;2023-01-15T16:04:29;39.30;;;16.50;;
65764;SDS011;52915;53.718;19.946;2023-01-15T16:09:34;99.00;;;34.30;;
65764;SDS011;52915;53.718;19.946;2023-01-15T16:14:40;85.20;;;29.90;;
65764;SDS011;52915;53.718;19.946;2023-01-15T16:19:44;30.00;;;11.20;;
65764;SDS011;52915;53.718;19.946;2023-01-15T16:45:29;130.70;;;35.80;;
65764;SDS011;52915;53.718;19.946;2023-01-15T16:50:38;155.50;;;46.90;;
65764;SDS011;52915;53.718;19.946;2023-01-15T17:06:58;89.20;;;32.80;;
65764;SDS011;52915;53.718;19.946;2023-01-15T17:12:32;79.20;;;25.60;;
65764;SDS011;52915;53.718;19.946;2023-01-15T17:17:45;129.40;;;42.60;;
65764;SDS011;52915;53.718;19.946;2023-01-15T17:22:55;80.60;;;28.00;;
65764;SDS011;52915;53.718;19.946;2023-01-15T17:28:16;67.70;;;23.60;;
65764;SDS011;52915;53.718;19.946;2023-01-15T17:33:22;69.90;;;21.60;;
65764;SDS011;52915;53.718;19.946;2023-01-15T17:38:31;148.00;;;46.80;;
65764;SDS011;52915;53.718;19.946;2023-01-15T17:54:08;185.30;;;50.50;;
65764;SDS011;52915;53.718;19.946;2023-01-15T17:59:43;65.50;;;22.90;;
65764;SDS011;52915;53.718;19.946;2023-01-15T18:05:15;79.00;;;23.30;;
65764;SDS011;52915;53.718;19.946;2023-01-15T18:10:48;72.70;;;23.20;;
65764;SDS011;52915;53.718;19.946;2023-01-15T18:30:16;133.60;;;38.00;;
65764;SDS011;52915;53.718;19.946;2023-01-15T18:46:46;80.10;;;23.80;;
65764;SDS011;52915;53.718;19.946;2023-01-15T18:51:53;74.60;;;20.30;;
65764;SDS011;52915;53.718;19.946;2023-01-15T18:57:41;125.10;;;32.40;;
65764;SDS011;52915;53.718;19.946;2023-01-15T19:02:45;47.80;;;17.00;;
65764;SDS011;52915;53.718;19.946;2023-01-15T19:07:49;81.90;;;21.60;;
65764;SDS011;52915;53.718;19.946;2023-01-15T19:12:53;75.10;;;22.40;;
65764;SDS011;52915;53.718;19.946;2023-01-15T19:32:26;93.70;;;24.90;;
65764;SDS011;52915;53.718;19.946;2023-01-15T19:37:56;73.90;;;18.70;;
65764;SDS011;52915;53.718;19.946;2023-01-15T19:50:12;98.20;;;34.70;;
65764;SDS011;52915;53.718;19.946;2023-01-15T19:55:24;62.70;;;16.50;;
65764;SDS011;52915;53.718;19.946;2023-01-15T20:00:33;56.00;;;21.50;;
65764;SDS011;52915;53.718;19.946;2023-01-15T20:12:09;63.90;;;18.10;;
65764;SDS011;52915;53.718;19.946;2023-01-15T20:17:33;57.70;;;18.90;;
65764;SDS011;52915;53.718;19.946;2023-01-15T20:22:56;48.40;;;18.60;;
65764;SDS011;52915;53.718;19.946;2023-01-15T20:28:01;79.10;;;24.90;;
65764;SDS011;52915;53.718;19.946;2023-01-15T20:39:55;58.00;;;17.30;;
65764;SDS011;52915;53.718;19.946;2023-01-15T20:44:59;45.00;;;19.20;;
65764;SDS011;52915;53.718;19.946;2023-01-15T20:50:14;57.80;;;17.50;;
65764;SDS011;52915;53.718;19.946;2023-01-15T21:01:21;33.10;;;11.80;;
65764;SDS011;52915;53.718;19.946;2023-01-15T21:06:29;50.70;;;14.20;;
65764;SDS011;52915;53.718;19.946;2023-01-15T21:11:33;39.80;;;12.80;;
65764;SDS011;52915;53.718;19.946;2023-01-15T21:22:37;37.40;;;13.50;;
65764;SDS011;52915;53.718;19.946;2023-01-15T21:27:50;39.50;;;13.80;;
65764;SDS011;52915;53.718;19.946;2023-01-15T21:32:57;98.20;;;26.20;;
65764;SDS011;52915;53.718;19.946;2023-01-15T21:44:01;44.50;;;15.50;;
65764;SDS011;52915;53.718;19.946;2023-01-15T21:49:23;85.60;;;24.70;;
65764;SDS011;52915;53.718;19.946;2023-01-15T21:54:27;54.50;;;17.20;;
65764;SDS011;52915;53.718;19.946;2023-01-15T21:59:31;32.80;;;9.90;;
65764;SDS011;52915;53.718;19.946;2023-01-15T22:04:35;88.50;;;21.50;;
65764;SDS011;52915;53.718;19.946;2023-01-15T22:09:43;45.10;;;16.50;;
65764;SDS011;52915;53.718;19.946;2023-01-15T22:14:47;71.70;;;17.70;;
65764;SDS011;52915;53.718;19.946;2023-01-15T22:19:51;46.70;;;13.80;;
65764;SDS011;52915;53.718;19.946;2023-01-15T22:24:55;46.20;;;12.10;;
65764;SDS011;52915;53.718;19.946;2023-01-15T22:30:19;56.80;;;15.90;;
65764;SDS011;52915;53.718;19.946;2023-01-15T22:35:24;30.70;;;10.10;;
65764;SDS011;52915;53.718;19.946;2023-01-15T22:47:36;52.30;;;10.20;;
65764;SDS011;52915;53.718;19.946;2023-01-15T22:52:40;36.00;;;8.40;;
65764;SDS011;52915;53.718;19.946;2023-01-15T22:57:44;17.70;;;6.20;;
65764;SDS011;52915;53.718;19.946;2023-01-15T23:02:50;15.10;;;7.30;;
65764;SDS011;52915;53.718;19.946;2023-01-15T23:07:57;20.60;;;5.70;;
65764;SDS011;52915;53.718;19.946;2023-01-15T23:13:25;30.50;;;8.30;;
65764;SDS011;52915;53.718;19.946;2023-01-15T23:18:29;27.20;;;8.90;;
65764;SDS011;52915;53.718;19.946;2023-01-15T23:23:35;38.10;;;9.80;;
65764;SDS011;52915;53.718;19.946;2023-01-15T23:28:58;12.90;;;7.00;;
65764;SDS011;52915;53.718;19.946;2023-01-15T23:41:10;23.60;;;8.90;;
65764;SDS011;52915;53.718;19.946;2023-01-15T23:46:16;22.70;;;6.90;;
65764;SDS011;52915;53.718;19.946;2023-01-15T23:51:38;20.90;;;8.90;;
65764;SDS011;52915;53.718;19.946;2023-01-15T23:56:42;31.20;;;6.90;;
